KCCU

Red Cliff Pass Airport

Copper Mountain, Colorado, USA
METAR KCCU 162236Z AUTO 30012G22KT 3/4SM -SN OVC003 M05/M08 A3006 RMK AO2
Observed Flight Rules
Jan-16 @ 22:36 UTC (16 minutes ago) Instrument Flight Rules
Wind Visibility Clouds Conditions
300° at 12 knots
 Gusting to 22 knots
3/4 miles
  • Overcast at 300' AGL
  • Light Snow
Temperatures Readings
Current -5°C / 23°F
Dewpoint -8°C / 18°F
Humidity 80%
Altimeter 30.06" Hg
Pressure 1017.92 hPa
Elevation 3680
METAR KCCU 162236Z AUTO 30012G22KT 3/4SM -SN OVC003 M05/M08 A3006 RMK AO2
Observed Flight Rules
Jan-16 @ 22:36 UTC
(16 minutes ago)
LIFR
Wind Visibility
300° at 12 knots
 Gusting to 22 knots
3/4 miles
Clouds
  • Overcast at 300' AGL
Conditions
  • Light Snow
Temperature Dewpoint
-5°C / 23°F -8°C / 18°F
Humidity Altimeter Pressure
80% 30.06" Hg 1017.92 hPa